Time;durP1;ratioP1;P1;durP2;ratioP2;P2;SDS_P1;SDS_P2;PMS_P1;PMS_P2;Temp;Humidity;BMP_temperature;BMP_pressure;BME280_temperature;BME280_humidity;BME280_pressure;Samples;Min_cycle;Max_cycle;Signal;HPM_P1;HPM_P2
2022/11/18 00:00:49;;;;;;;16.48;10.50;;;8.40;99.90;;;;;;5090773;28;20057;-88
2022/11/18 00:03:14;;;;;;;20.10;10.18;;;8.40;99.90;;;;;;5086745;28;20044;-88
2022/11/18 00:05:40;;;;;;;19.77;10.38;;;8.40;99.90;;;;;;5105657;28;20088;-89
2022/11/18 00:08:05;;;;;;;17.33;11.23;;;8.40;99.90;;;;;;5110788;28;20069;-88
2022/11/18 00:10:31;;;;;;;18.35;11.65;;;8.40;99.90;;;;;;5110020;28;20115;-88
2022/11/18 00:15:41;;;;;;;20.08;11.82;;;8.40;99.90;;;;;;5103323;28;20074;-88
2022/11/18 00:18:07;;;;;;;17.60;10.57;;;8.40;99.90;;;;;;5111282;28;20063;-88
2022/11/18 00:20:33;;;;;;;17.38;11.32;;;8.40;99.90;;;;;;5092586;28;20092;-89
2022/11/18 00:22:59;;;;;;;19.40;11.52;;;8.40;99.90;;;;;;5111026;28;20071;-88
2022/11/18 00:25:25;;;;;;;20.33;11.77;;;8.40;99.90;;;;;;5111072;28;20070;-89
2022/11/18 00:27:50;;;;;;;18.15;11.73;;;8.50;99.90;;;;;;5093972;28;20070;-89
2022/11/18 00:30:16;;;;;;;19.23;10.88;;;8.50;99.90;;;;;;5110657;28;20071;-88
2022/11/18 00:32:42;;;;;;;20.33;13.35;;;8.50;99.90;;;;;;5093530;28;20039;-88
2022/11/18 00:35:08;;;;;;;18.98;11.57;;;8.50;99.90;;;;;;5093969;28;20067;-88
2022/11/18 00:37:33;;;;;;;18.63;11.35;;;8.50;99.90;;;;;;5111112;28;20032;-88
2022/11/18 00:40:05;;;;;;;18.02;10.88;;;8.50;99.90;;;;;;5110521;28;20039;-88
2022/11/18 00:45:15;;;;;;;21.92;11.65;;;8.50;99.90;;;;;;5090432;28;20043;-88
2022/11/18 00:47:41;;;;;;;20.17;12.57;;;8.50;99.90;;;;;;5073620;28;20123;-88
2022/11/18 00:50:06;;;;;;;20.75;12.52;;;8.50;99.90;;;;;;5090360;28;20146;-88
2022/11/18 00:52:32;;;;;;;21.25;12.38;;;8.50;99.90;;;;;;5089723;28;20083;-89
2022/11/18 00:54:57;;;;;;;24.23;12.57;;;8.50;99.90;;;;;;5073370;28;20040;-88
2022/11/18 00:57:23;;;;;;;22.25;13.05;;;8.50;99.90;;;;;;5090306;28;20413;-88
2022/11/18 00:59:48;;;;;;;22.15;13.07;;;8.50;99.90;;;;;;5091416;28;20394;-88
2022/11/18 01:02:14;;;;;;;21.55;12.73;;;8.50;99.90;;;;;;5089877;28;20044;-89
2022/11/18 01:04:40;;;;;;;21.20;12.07;;;8.50;99.90;;;;;;5073166;28;20096;-88
2022/11/18 01:07:05;;;;;;;20.38;12.15;;;8.50;99.90;;;;;;5073577;28;20071;-88
2022/11/18 01:09:31;;;;;;;20.40;11.98;;;8.50;99.90;;;;;;5090158;28;20117;-89
2022/11/18 01:14:40;;;;;;;20.60;12.82;;;8.50;99.90;;;;;;5090011;28;20089;-88
2022/11/18 01:17:06;;;;;;;22.58;13.05;;;8.50;99.90;;;;;;5090369;28;20071;-88
2022/11/18 01:19:31;;;;;;;20.67;13.18;;;8.50;99.90;;;;;;5073344;28;20565;-89
2022/11/18 01:22:01;;;;;;;23.52;13.32;;;8.50;99.90;;;;;;5089951;28;20032;-89
2022/11/18 01:24:28;;;;;;;24.95;13.45;;;8.50;99.90;;;;;;5073044;28;20040;-89
2022/11/18 01:26:53;;;;;;;21.70;12.43;;;8.50;99.90;;;;;;5090569;28;20032;-88
2022/11/18 01:29:19;;;;;;;22.05;12.80;;;8.50;99.90;;;;;;5090052;28;20497;-88
2022/11/18 01:31:44;;;;;;;23.67;14.65;;;8.50;99.90;;;;;;5089612;28;20039;-89
2022/11/18 01:34:10;;;;;;;26.98;14.38;;;8.50;99.90;;;;;;5089505;28;20140;-88
2022/11/18 01:36:36;;;;;;;21.98;13.25;;;8.50;99.90;;;;;;5089853;28;20040;-88
2022/11/18 01:39:02;;;;;;;22.15;13.25;;;8.50;99.90;;;;;;5073098;28;20036;-89
2022/11/18 01:41:28;;;;;;;19.95;12.18;;;8.50;99.90;;;;;;5073380;28;20421;-89
2022/11/18 01:44:02;;;;;;;22.13;13.23;;;8.50;99.90;;;;;;5089373;28;20101;-89
2022/11/18 01:46:31;;;;;;;21.05;13.13;;;8.50;99.90;;;;;;5073036;28;20039;-88
2022/11/18 01:49:15;;;;;;;21.67;13.80;;;8.50;99.90;;;;;;5072967;28;20036;-89
2022/11/18 01:51:55;;;;;;;23.02;13.00;;;8.50;99.90;;;;;;5091988;28;20181;-89
2022/11/18 01:54:27;;;;;;;20.73;12.10;;;8.50;99.90;;;;;;5093052;28;20036;-89
2022/11/18 01:56:57;;;;;;;21.85;13.07;;;8.50;99.90;;;;;;5093746;28;20085;-88
2022/11/18 01:59:26;;;;;;;22.50;13.48;;;8.50;99.90;;;;;;5094037;28;20036;-88
2022/11/18 02:01:54;;;;;;;23.10;13.27;;;8.50;99.90;;;;;;5093521;28;20044;-88
2022/11/18 02:04:21;;;;;;;21.20;12.88;;;8.50;99.90;;;;;;5093306;28;20040;-88
2022/11/18 02:06:47;;;;;;;23.95;13.07;;;8.50;99.90;;;;;;5093474;28;20036;-88
2022/11/18 02:09:16;;;;;;;21.60;13.90;;;8.50;99.90;;;;;;5076498;28;20036;-89
2022/11/18 02:11:53;;;;;;;21.67;12.80;;;8.50;99.90;;;;;;5093261;28;20036;-88
2022/11/18 02:14:30;;;;;;;21.52;12.32;;;8.50;99.90;;;;;;5092868;28;20040;-88
2022/11/18 02:17:31;;;;;;;18.35;12.00;;;8.50;99.90;;;;;;5093458;28;20457;-89
2022/11/18 02:20:20;;;;;;;26.20;14.05;;;8.60;99.90;;;;;;5093246;28;20050;-88
2022/11/18 02:23:20;;;;;;;22.25;12.82;;;8.50;99.90;;;;;;5093057;28;20039;-88
2022/11/18 02:26:21;;;;;;;21.15;12.63;;;8.50;99.90;;;;;;5076146;28;20040;-89
2022/11/18 02:28:50;;;;;;;22.38;12.35;;;8.60;99.90;;;;;;5093065;28;20048;-88
2022/11/18 02:31:26;;;;;;;20.10;12.48;;;8.50;99.90;;;;;;5092834;28;20048;-89
2022/11/18 02:34:09;;;;;;;22.17;12.90;;;8.60;99.90;;;;;;5092678;28;20165;-88
2022/11/18 02:37:01;;;;;;;22.42;12.35;;;8.50;99.90;;;;;;5075807;28;20568;-89
2022/11/18 02:39:33;;;;;;;21.17;12.25;;;8.50;99.90;;;;;;5076312;28;20119;-88
2022/11/18 02:42:03;;;;;;;18.00;11.45;;;8.50;99.90;;;;;;5092949;28;20032;-89
2022/11/18 02:44:29;;;;;;;22.77;12.73;;;8.50;99.90;;;;;;5092376;28;20040;-88
2022/11/18 02:47:00;;;;;;;19.42;11.77;;;8.50;99.90;;;;;;5092792;28;20039;-89
2022/11/18 02:49:35;;;;;;;22.70;12.98;;;8.50;99.90;;;;;;5075802;28;20047;-88
2022/11/18 02:52:03;;;;;;;19.25;10.65;;;8.50;99.90;;;;;;5075304;28;20036;-88
2022/11/18 02:54:29;;;;;;;22.67;12.20;;;8.50;99.90;;;;;;5075304;28;20553;-88
2022/11/18 02:56:56;;;;;;;19.38;12.70;;;8.50;99.90;;;;;;5092456;28;20089;-89
2022/11/18 02:59:22;;;;;;;20.05;12.00;;;8.50;99.90;;;;;;5092247;28;20036;-89
2022/11/18 03:01:48;;;;;;;20.95;12.55;;;8.50;99.90;;;;;;5091780;28;20051;-89
2022/11/18 03:04:16;;;;;;;21.58;11.23;;;8.50;99.90;;;;;;5091948;28;20047;-89
2022/11/18 03:06:49;;;;;;;23.13;12.38;;;8.50;99.90;;;;;;5075362;28;20070;-88
2022/11/18 03:09:25;;;;;;;23.38;12.10;;;8.50;99.90;;;;;;5092239;28;20043;-88
2022/11/18 03:12:15;;;;;;;19.15;11.43;;;8.50;99.90;;;;;;5092025;28;20113;-88
2022/11/18 03:15:01;;;;;;;19.05;11.82;;;8.50;99.90;;;;;;5075133;28;20565;-88
2022/11/18 03:17:46;;;;;;;18.67;11.48;;;8.50;99.90;;;;;;5075217;28;20036;-89
2022/11/18 03:20:17;;;;;;;19.17;11.40;;;8.50;99.90;;;;;;5091719;28;20043;-88
2022/11/18 03:23:08;;;;;;;19.17;11.70;;;8.50;99.90;;;;;;5091481;28;20040;-89
2022/11/18 03:25:43;;;;;;;20.85;12.02;;;8.50;99.90;;;;;;5075124;28;20040;-89
2022/11/18 03:28:20;;;;;;;19.92;11.30;;;8.50;99.90;;;;;;5091900;28;20040;-88
2022/11/18 03:30:52;;;;;;;19.27;12.05;;;8.50;99.90;;;;;;5074772;28;20040;-88
2022/11/18 03:33:24;;;;;;;19.65;11.10;;;8.50;99.90;;;;;;5091605;28;20406;-88
2022/11/18 03:35:52;;;;;;;20.90;11.93;;;8.50;99.90;;;;;;5074868;28;20036;-89
2022/11/18 03:38:25;;;;;;;21.17;11.18;;;8.50;99.90;;;;;;5074558;28;20048;-88
2022/11/18 03:40:57;;;;;;;23.02;11.73;;;8.50;99.90;;;;;;5075023;28;20040;-88
2022/11/18 03:43:27;;;;;;;21.90;12.95;;;8.50;99.90;;;;;;5091199;28;20409;-88
2022/11/18 03:46:00;;;;;;;20.80;11.70;;;8.50;99.90;;;;;;5091750;28;20047;-89
2022/11/18 03:48:28;;;;;;;;;;;8.50;99.90;;;;;;5091782;28;20082;-89
2022/11/18 03:51:00;;;;;;;19.25;11.57;;;8.50;99.90;;;;;;5091657;28;19923;-89
2022/11/18 03:53:29;;;;;;;20.02;12.30;;;8.50;99.90;;;;;;5074005;28;20054;-89
2022/11/18 03:56:02;;;;;;;21.70;12.27;;;8.50;99.90;;;;;;5091217;28;20036;-88
2022/11/18 03:58:34;;;;;;;20.83;11.40;;;8.50;99.90;;;;;;5091173;28;20485;-88
2022/11/18 04:01:13;;;;;;;20.38;12.05;;;8.50;99.90;;;;;;5074399;28;20124;-89
2022/11/18 04:03:39;;;;;;;18.90;12.13;;;8.50;99.90;;;;;;5090949;28;20075;-88
2022/11/18 04:06:19;;;;;;;21.55;12.18;;;8.40;99.90;;;;;;5090923;28;20082;-89
2022/11/18 04:08:51;;;;;;;21.60;11.55;;;8.40;99.90;;;;;;5091029;28;20071;-89
2022/11/18 04:14:08;;;;;;;19.85;12.43;;;8.40;99.90;;;;;;5089859;28;20044;-89
2022/11/18 04:16:40;;;;;;;20.80;11.73;;;8.40;99.90;;;;;;5073716;28;20048;-90
2022/11/18 04:19:05;;;;;;;22.05;12.18;;;8.40;99.90;;;;;;5074295;28;20497;-89
2022/11/18 04:21:31;;;;;;;23.52;11.82;;;8.50;99.90;;;;;;5090714;28;20036;-89
2022/11/18 04:23:56;;;;;;;21.88;12.57;;;8.40;99.90;;;;;;5090741;28;20044;-89
2022/11/18 04:26:22;;;;;;;17.13;11.25;;;8.40;99.90;;;;;;5073925;28;20047;-89
2022/11/18 04:28:47;;;;;;;19.90;12.38;;;8.40;99.90;;;;;;5090936;28;20042;-89
2022/11/18 04:31:13;;;;;;;19.13;11.65;;;8.40;99.90;;;;;;5090869;28;20529;-89
2022/11/18 04:33:38;;;;;;;21.20;11.95;;;8.40;99.90;;;;;;5071261;28;20072;-89
2022/11/18 04:36:04;;;;;;;19.42;11.27;;;8.40;99.90;;;;;;5090529;28;20115;-89
2022/11/18 04:38:30;;;;;;;22.27;11.40;;;8.40;99.90;;;;;;5073066;28;20127;-89
2022/11/18 04:40:55;;;;;;;19.95;11.48;;;8.40;99.90;;;;;;5090587;28;20032;-89
2022/11/18 04:43:21;;;;;;;20.98;12.25;;;8.40;99.90;;;;;;5090200;28;20039;-89
2022/11/18 04:45:46;;;;;;;21.17;11.38;;;8.40;99.90;;;;;;5090272;28;20130;-89
2022/11/18 04:48:12;;;;;;;20.70;11.70;;;8.40;99.90;;;;;;5090479;28;20143;-89
2022/11/18 04:50:37;;;;;;;19.17;11.32;;;8.40;99.90;;;;;;5090485;28;20483;-89
2022/11/18 04:53:03;;;;;;;19.83;11.20;;;8.40;99.90;;;;;;5073106;28;20482;-89
2022/11/18 04:55:28;;;;;;;21.92;12.30;;;8.40;99.90;;;;;;5090365;28;20036;-89
2022/11/18 04:57:54;;;;;;;20.90;12.48;;;8.40;99.90;;;;;;5090488;28;20046;-88
2022/11/18 05:00:21;;;;;;;21.00;12.10;;;8.40;99.90;;;;;;5073181;28;20032;-89
2022/11/18 05:02:47;;;;;;;19.08;11.27;;;8.40;99.90;;;;;;5090321;28;20036;-89
2022/11/18 05:05:13;;;;;;;22.50;12.13;;;8.40;99.90;;;;;;5090488;28;20040;-89
2022/11/18 05:07:38;;;;;;;20.85;12.23;;;8.40;99.90;;;;;;5090193;28;20065;-89
2022/11/18 05:10:04;;;;;;;18.48;10.63;;;8.40;99.90;;;;;;5090061;28;20059;-89
2022/11/18 05:12:48;;;;;;;20.13;12.18;;;8.30;99.90;;;;;;5072851;28;20047;-89
2022/11/18 05:15:22;;;;;;;20.38;11.70;;;8.40;99.90;;;;;;5090077;28;20040;-89
2022/11/18 05:17:48;;;;;;;19.25;11.07;;;8.30;99.90;;;;;;5073302;28;20040;-89
2022/11/18 05:20:14;;;;;;;18.50;10.73;;;8.30;99.90;;;;;;5090297;28;20123;-89
2022/11/18 05:22:40;;;;;;;19.98;12.10;;;8.30;99.90;;;;;;5089830;28;20485;-89
2022/11/18 05:25:06;;;;;;;23.27;12.25;;;8.30;99.90;;;;;;5091245;28;20071;-89
2022/11/18 05:27:32;;;;;;;19.90;11.32;;;8.30;99.90;;;;;;5077316;28;20044;-89
2022/11/18 05:29:57;;;;;;;18.73;10.82;;;8.30;99.90;;;;;;5094371;28;20044;-89
2022/11/18 05:32:23;;;;;;;23.45;11.75;;;8.30;99.90;;;;;;5093511;28;20040;-89
2022/11/18 05:34:49;;;;;;;20.63;11.73;;;8.30;99.90;;;;;;5077319;28;20043;-89
2022/11/18 05:37:14;;;;;;;19.50;12.45;;;8.30;99.90;;;;;;5093930;28;20078;-89
2022/11/18 05:39:40;;;;;;;20.92;11.63;;;8.30;99.90;;;;;;5093961;28;20097;-89
2022/11/18 05:44:50;;;;;;;22.02;11.95;;;8.30;99.90;;;;;;5093722;28;20409;-89
2022/11/18 05:47:17;;;;;;;24.27;12.52;;;8.30;99.90;;;;;;5093817;28;20040;-89
2022/11/18 05:49:42;;;;;;;20.38;11.23;;;8.30;99.90;;;;;;5093980;28;20043;-89
2022/11/18 05:52:08;;;;;;;19.45;10.85;;;8.30;99.90;;;;;;5093200;28;20039;-89
2022/11/18 05:54:34;;;;;;;21.63;12.45;;;8.30;99.90;;;;;;5093259;28;20394;-89
2022/11/18 05:56:59;;;;;;;20.65;12.63;;;8.30;99.90;;;;;;5076712;28;20397;-89
2022/11/18 05:59:25;;;;;;;23.45;13.35;;;8.30;99.90;;;;;;5093548;28;20123;-89
2022/11/18 06:02:05;;;;;;;22.60;12.15;;;8.20;99.90;;;;;;5076743;28;20032;-89
2022/11/18 06:04:49;;;;;;;22.83;12.15;;;8.30;99.90;;;;;;5093322;28;20032;-89
2022/11/18 06:07:21;;;;;;;20.25;12.20;;;8.20;99.90;;;;;;5093541;28;20036;-89
2022/11/18 06:09:50;;;;;;;21.60;12.32;;;8.20;99.90;;;;;;5093678;28;20036;-89
2022/11/18 06:12:20;;;;;;;19.95;11.43;;;8.20;99.90;;;;;;5073889;28;20519;-89
2022/11/18 06:14:54;;;;;;;20.25;11.32;;;8.20;99.90;;;;;;5075904;28;20048;-89
2022/11/18 06:17:26;;;;;;;18.60;11.15;;;8.20;99.90;;;;;;5092918;28;20042;-88
2022/11/18 06:19:52;;;;;;;19.38;11.38;;;8.20;99.90;;;;;;5092761;28;20032;-89
2022/11/18 06:22:17;;;;;;;20.45;10.95;;;8.20;99.90;;;;;;5092019;28;20040;-88
2022/11/18 06:24:43;;;;;;;20.88;12.13;;;8.20;99.90;;;;;;5092570;28;20040;-89
2022/11/18 06:27:10;;;;;;;20.05;11.75;;;8.20;99.90;;;;;;5075980;28;20032;-88
2022/11/18 06:29:35;;;;;;;20.67;11.77;;;8.20;99.90;;;;;;5092944;28;20400;-89
2022/11/18 06:32:01;;;;;;;22.80;11.18;;;8.20;99.90;;;;;;5091855;28;20553;-88
2022/11/18 06:34:26;;;;;;;18.13;9.48;;;8.20;99.90;;;;;;5075539;28;20044;-89
2022/11/18 06:36:52;;;;;;;18.20;10.40;;;8.20;99.90;;;;;;5074591;28;20123;-89
2022/11/18 06:39:18;;;;;;;20.08;10.23;;;8.20;99.90;;;;;;5075847;28;20032;-89
2022/11/18 06:41:43;;;;;;;18.00;10.35;;;8.20;99.90;;;;;;5092234;28;20489;-89
2022/11/18 06:44:10;;;;;;;20.08;10.65;;;8.20;99.90;;;;;;5092159;28;20047;-89
2022/11/18 06:46:54;;;;;;;20.15;10.57;;;8.10;99.90;;;;;;5075019;28;20039;-89
2022/11/18 06:49:20;;;;;;;16.92;9.48;;;8.10;99.90;;;;;;5092132;28;20044;-88
2022/11/18 06:51:46;;;;;;;16.27;8.65;;;8.10;99.90;;;;;;5075078;28;20040;-89
2022/11/18 06:54:12;;;;;;;15.25;8.52;;;8.10;99.90;;;;;;5091525;28;20044;-88
2022/11/18 06:56:37;;;;;;;17.30;9.00;;;8.10;99.90;;;;;;5091976;28;20074;-89
2022/11/18 06:59:03;;;;;;;16.08;8.27;;;8.10;99.90;;;;;;5091689;28;20032;-89
2022/11/18 07:01:33;;;;;;;16.05;7.70;;;8.10;99.90;;;;;;5075443;28;20126;-89
2022/11/18 07:03:59;;;;;;;13.50;6.60;;;8.10;99.90;;;;;;5091669;28;20039;-89
2022/11/18 07:06:26;;;;;;;14.57;7.78;;;8.10;99.90;;;;;;5091850;28;20036;-88
2022/11/18 07:08:53;;;;;;;15.60;7.85;;;8.10;99.90;;;;;;5091789;28;20039;-89
2022/11/18 07:11:21;;;;;;;16.23;7.57;;;8.10;99.90;;;;;;5074712;28;20043;-89
2022/11/18 07:13:47;;;;;;;14.23;7.32;;;8.10;99.90;;;;;;5091326;28;20047;-89
2022/11/18 07:16:18;;;;;;;16.23;8.23;;;8.00;99.90;;;;;;5091407;28;20100;-89
2022/11/18 07:18:45;;;;;;;17.45;8.23;;;8.10;99.90;;;;;;5074686;28;20036;-89
2022/11/18 07:21:13;;;;;;;18.67;8.82;;;8.00;99.90;;;;;;5091340;28;20036;-89
2022/11/18 07:23:39;;;;;;;16.20;7.93;;;8.00;99.90;;;;;;5074577;28;20569;-88
2022/11/18 07:26:05;;;;;;;18.58;9.82;;;8.00;99.90;;;;;;5091188;28;20083;-89
2022/11/18 07:28:32;;;;;;;19.25;9.30;;;8.00;99.90;;;;;;5091374;28;20048;-88
2022/11/18 07:31:06;;;;;;;20.45;9.07;;;8.00;99.90;;;;;;5091358;28;20093;-89
2022/11/18 07:33:32;;;;;;;19.20;9.63;;;8.00;99.90;;;;;;5090707;28;20588;-88
2022/11/18 07:36:07;;;;;;;15.60;8.45;;;8.00;99.90;;;;;;5091146;28;20036;-88
2022/11/18 07:38:33;;;;;;;19.42;9.05;;;8.00;99.90;;;;;;5091040;28;20109;-89
2022/11/18 07:41:04;;;;;;;17.60;9.23;;;8.00;99.90;;;;;;5091163;28;20035;-88
2022/11/18 07:43:31;;;;;;;19.80;9.45;;;8.00;99.90;;;;;;5090768;28;20044;-88
2022/11/18 07:45:56;;;;;;;18.00;9.20;;;8.00;99.90;;;;;;5074026;28;20039;-89
2022/11/18 07:48:22;;;;;;;18.25;8.68;;;8.00;99.90;;;;;;5090949;28;20051;-88
2022/11/18 07:50:47;;;;;;;17.55;9.38;;;8.00;99.90;;;;;;5090789;28;20050;-88
2022/11/18 07:53:13;;;;;;;17.30;9.15;;;8.00;99.90;;;;;;5073506;28;20413;-88
2022/11/18 07:55:38;;;;;;;17.35;8.13;;;8.00;99.90;;;;;;5073915;28;20378;-88
2022/11/18 07:58:04;;;;;;;15.77;8.05;;;8.00;99.90;;;;;;5091090;28;20401;-89
2022/11/18 08:00:29;;;;;;;15.55;8.60;;;8.00;99.90;;;;;;5090904;28;20509;-89
2022/11/18 08:02:55;;;;;;;17.20;8.88;;;8.00;99.90;;;;;;5089600;28;20489;-89
2022/11/18 08:05:20;;;;;;;17.13;9.20;;;8.00;99.90;;;;;;5090212;28;20047;-89
2022/11/18 08:07:46;;;;;;;17.73;8.15;;;8.00;99.90;;;;;;5088843;28;20051;-89
2022/11/18 08:10:11;;;;;;;16.83;8.13;;;8.00;99.90;;;;;;5104928;28;20093;-89
2022/11/18 08:12:37;;;;;;;17.15;8.70;;;8.00;99.90;;;;;;5088555;28;20506;-88
2022/11/18 08:15:03;;;;;;;16.88;7.93;;;8.00;99.90;;;;;;5089839;28;20036;-88
2022/11/18 08:17:28;;;;;;;15.63;7.95;;;8.00;99.90;;;;;;5089639;28;20412;-88
2022/11/18 08:19:54;;;;;;;16.58;7.72;;;7.90;99.90;;;;;;5072359;28;20039;-88
2022/11/18 08:22:19;;;;;;;15.20;7.75;;;8.00;99.90;;;;;;5105930;28;20702;-88
2022/11/18 08:24:49;;;;;;;14.30;7.45;;;8.00;99.90;;;;;;5073127;28;20546;-88
2022/11/18 08:27:14;;;;;;;15.52;7.25;;;8.00;99.90;;;;;;5090688;28;20182;-88
2022/11/18 08:29:40;;;;;;;16.63;7.57;;;8.00;99.90;;;;;;5073352;28;20560;-88
2022/11/18 08:32:06;;;;;;;17.45;7.70;;;8.00;99.90;;;;;;5072968;28;20409;-88
2022/11/18 08:34:31;;;;;;;14.27;7.60;;;8.00;99.90;;;;;;5090210;28;20077;-88
2022/11/18 08:36:57;;;;;;;14.93;7.07;;;8.00;99.90;;;;;;5095031;28;20061;-88
2022/11/18 08:39:22;;;;;;;14.20;7.93;;;8.00;99.90;;;;;;5093536;28;20492;-88
2022/11/18 08:41:48;;;;;;;14.98;6.85;;;8.00;99.90;;;;;;5093510;28;20027;-88
2022/11/18 08:44:15;;;;;;;14.88;7.07;;;8.00;99.90;;;;;;5093108;28;20088;-88
2022/11/18 08:46:44;;;;;;;16.70;8.13;;;8.00;99.90;;;;;;5109193;28;20048;-88
2022/11/18 08:49:10;;;;;;;15.90;6.85;;;8.00;99.90;;;;;;5092562;28;20489;-88
2022/11/18 08:51:35;;;;;;;14.23;7.10;;;8.00;99.90;;;;;;5084933;28;20274;-88
2022/11/18 08:54:01;;;;;;;13.65;7.07;;;8.00;99.90;;;;;;5072693;28;20169;-88
2022/11/18 08:56:27;;;;;;;15.02;7.30;;;8.00;99.90;;;;;;5083249;28;20024;-87
2022/11/18 08:58:53;;;;;;;12.88;7.28;;;8.10;99.90;;;;;;5053600;28;20040;-88
2022/11/18 09:01:19;;;;;;;14.48;7.50;;;8.10;99.90;;;;;;5069227;28;20036;-88
2022/11/18 09:03:46;;;;;;;12.13;6.15;;;8.10;99.90;;;;;;5052574;28;20093;-88
2022/11/18 09:06:13;;;;;;;13.18;6.68;;;8.10;99.90;;;;;;5052780;28;20041;-88
2022/11/18 09:08:39;;;;;;;11.85;6.13;;;8.10;99.90;;;;;;5052851;28;20050;-88
2022/11/18 09:11:09;;;;;;;13.55;7.00;;;8.10;99.90;;;;;;5052815;28;20036;-88
2022/11/18 09:13:35;;;;;;;11.90;6.22;;;8.10;99.90;;;;;;5069176;28;20040;-88
2022/11/18 09:16:01;;;;;;;12.73;5.63;;;8.10;99.90;;;;;;5069685;28;20127;-88
2022/11/18 09:18:26;;;;;;;11.27;6.07;;;8.10;99.90;;;;;;5052859;28;20541;-88
2022/11/18 09:20:56;;;;;;;12.50;6.00;;;8.10;99.90;;;;;;5069239;28;20093;-88
2022/11/18 09:23:22;;;;;;;12.07;5.82;;;8.10;99.90;;;;;;5069182;28;20090;-88
2022/11/18 09:25:48;;;;;;;14.68;7.18;;;8.10;99.90;;;;;;5052605;28;20048;-88
2022/11/18 09:28:13;;;;;;;12.40;6.47;;;8.10;99.90;;;;;;5069355;28;20043;-89
2022/11/18 09:30:40;;;;;;;12.93;5.80;;;8.10;99.90;;;;;;5069227;28;20094;-88
2022/11/18 09:33:06;;;;;;;12.55;6.10;;;8.10;99.90;;;;;;5051995;28;20044;-89
2022/11/18 09:35:32;;;;;;;14.85;6.53;;;8.10;99.90;;;;;;5069426;28;20040;-88
2022/11/18 09:37:58;;;;;;;11.82;6.13;;;8.10;99.90;;;;;;5069640;28;20389;-88
2022/11/18 09:40:24;;;;;;;13.40;6.68;;;8.10;99.90;;;;;;5052597;28;20550;-88
2022/11/18 09:43:04;;;;;;;14.27;7.03;;;8.10;99.90;;;;;;5068920;28;20037;-88
2022/11/18 09:45:36;;;;;;;13.85;7.05;;;8.10;99.90;;;;;;5052597;28;20079;-90
2022/11/18 09:49:11;;;;;;;16.13;6.78;;;8.10;99.90;;;;;;5069231;28;20532;-87
2022/11/18 09:51:09;;;;;;;14.57;6.75;;;8.10;99.90;;;;;;5068950;28;20052;-88
2022/11/18 09:53:38;;;;;;;16.88;7.53;;;8.10;99.90;;;;;;5068840;28;20048;-87
2022/11/18 09:56:04;;;;;;;15.00;6.85;;;8.00;99.90;;;;;;5052543;28;20047;-87
2022/11/18 09:58:33;;;;;;;14.20;7.03;;;8.00;99.90;;;;;;5052220;28;20086;-88
2022/11/18 10:01:00;;;;;;;11.32;5.05;;;8.00;99.90;;;;;;5068656;28;20029;-88
2022/11/18 10:03:28;;;;;;;11.95;6.28;;;8.00;99.90;;;;;;5052073;28;20402;-88
2022/11/18 10:06:23;;;;;;;13.57;6.65;;;8.00;99.90;;;;;;5052322;28;20120;-88
2022/11/18 10:09:08;;;;;;;12.43;6.35;;;8.00;99.90;;;;;;5052622;28;20468;-88
2022/11/18 10:11:52;;;;;;;14.77;6.95;;;8.00;99.90;;;;;;5052678;28;20044;-88
2022/11/18 10:14:41;;;;;;;13.60;6.93;;;8.00;99.90;;;;;;5055574;28;20037;-88
2022/11/18 10:17:48;;;;;;;12.57;6.30;;;8.00;99.90;;;;;;5056062;28;20455;-88
2022/11/18 10:20:23;;;;;;;14.25;7.15;;;7.90;99.90;;;;;;5106721;28;20124;-88
2022/11/18 10:23:13;;;;;;;15.63;7.82;;;8.00;99.90;;;;;;5055437;28;20036;-88
2022/11/18 10:25:38;;;;;;;16.17;7.68;;;7.90;99.90;;;;;;5072771;28;20037;-88
2022/11/18 10:28:28;;;;;;;15.88;8.02;;;7.90;99.90;;;;;;5072594;28;20051;-88
2022/11/18 10:31:09;;;;;;;13.82;7.38;;;7.90;99.90;;;;;;5072464;28;20123;-88
2022/11/18 10:33:36;;;;;;;13.52;7.00;;;8.00;99.90;;;;;;5075951;28;20032;-88
2022/11/18 10:36:17;;;;;;;12.75;6.20;;;8.00;99.90;;;;;;5075570;28;20046;-89
2022/11/18 10:38:44;;;;;;;15.35;7.32;;;8.00;99.90;;;;;;5073403;28;20044;-88
2022/11/18 10:41:16;;;;;;;14.55;7.68;;;8.00;99.90;;;;;;5090113;28;20122;-87
2022/11/18 10:43:44;;;;;;;13.05;6.47;;;7.90;99.90;;;;;;5092227;28;20040;-88
2022/11/18 10:46:26;;;;;;;13.45;6.88;;;7.90;99.90;;;;;;5075270;28;20062;-88
2022/11/18 10:49:07;;;;;;;13.77;6.37;;;7.90;99.90;;;;;;5075516;28;20425;-89
2022/11/18 10:51:35;;;;;;;14.45;7.07;;;7.90;99.90;;;;;;5074644;28;20282;-88
2022/11/18 10:54:18;;;;;;;15.07;6.72;;;7.90;99.90;;;;;;5095950;28;20055;-87
2022/11/18 10:56:59;;;;;;;14.05;7.35;;;7.90;99.90;;;;;;5099218;28;20058;-88
2022/11/18 10:59:29;;;;;;;13.05;6.88;;;7.90;99.90;;;;;;5094634;28;20040;-88
2022/11/18 11:02:14;;;;;;;12.73;5.80;;;7.80;99.90;;;;;;5089889;28;20048;-87
2022/11/18 11:04:41;;;;;;;14.18;7.22;;;7.80;99.90;;;;;;5095249;28;20070;-87
2022/11/18 11:07:25;;;;;;;12.27;6.72;;;7.80;99.90;;;;;;5112095;28;20100;-88
2022/11/18 11:10:03;;;;;;;14.45;6.75;;;7.80;99.90;;;;;;5095228;28;20032;-88
2022/11/18 11:12:34;;;;;;;13.48;6.43;;;7.80;99.90;;;;;;5094672;28;20071;-87
2022/11/18 11:15:09;;;;;;;12.10;6.90;;;7.80;99.90;;;;;;5111831;28;20057;-88
2022/11/18 11:17:44;;;;;;;14.18;6.65;;;7.80;99.90;;;;;;5094933;28;20043;-88
2022/11/18 11:20:15;;;;;;;12.63;6.53;;;7.80;99.90;;;;;;5095128;28;20035;-88
2022/11/18 11:22:41;;;;;;;15.63;6.82;;;7.80;99.90;;;;;;5094246;28;20058;-88
2022/11/18 11:25:38;;;;;;;12.35;6.60;;;7.80;99.90;;;;;;5112210;28;20044;-88
2022/11/18 11:28:28;;;;;;;14.55;6.82;;;7.80;99.90;;;;;;5093494;28;20051;-88
2022/11/18 11:31:18;;;;;;;12.57;6.25;;;7.80;99.90;;;;;;5111487;28;20055;-88
2022/11/18 11:34:22;;;;;;;10.98;5.70;;;7.80;99.90;;;;;;5094188;28;20075;-88
2022/11/18 11:37:02;;;;;;;10.98;4.88;;;7.80;99.90;;;;;;5111803;28;20198;-88
2022/11/18 11:39:33;;;;;;;10.07;4.88;;;7.80;99.90;;;;;;5093614;28;20123;-88
2022/11/18 11:42:14;;;;;;;12.65;5.32;;;7.80;99.90;;;;;;5110873;28;20035;-88
2022/11/18 11:45:11;;;;;;;11.18;5.25;;;7.80;99.90;;;;;;5094270;28;20089;-88
2022/11/18 11:47:56;;;;;;;10.80;5.60;;;7.80;99.90;;;;;;5111408;28;20051;-88
2022/11/18 11:50:53;;;;;;;11.23;5.50;;;7.70;99.90;;;;;;5094551;28;20485;-88
2022/11/18 11:53:26;;;;;;;11.43;5.63;;;7.70;99.90;;;;;;5087073;28;20040;-88
2022/11/18 11:56:00;;;;;;;10.77;4.97;;;7.70;99.90;;;;;;5090872;28;20047;-88
2022/11/18 11:58:41;;;;;;;11.30;5.82;;;7.70;99.90;;;;;;5090925;28;20036;-88
2022/11/18 12:01:25;;;;;;;12.50;6.30;;;7.70;99.90;;;;;;5090548;28;20046;-88
2022/11/18 12:04:16;;;;;;;12.77;6.22;;;7.70;99.90;;;;;;5090500;28;20047;-88
2022/11/18 12:06:48;;;;;;;11.10;5.10;;;7.70;99.90;;;;;;5073512;28;20035;-88
2022/11/18 12:09:20;;;;;;;12.20;6.22;;;7.70;99.90;;;;;;5090792;28;20036;-88
2022/11/18 12:11:54;;;;;;;12.73;5.90;;;7.70;99.90;;;;;;5089972;28;20515;-87
2022/11/18 12:14:46;;;;;;;12.30;6.15;;;7.80;99.90;;;;;;5090538;28;20125;-88
2022/11/18 12:17:26;;;;;;;13.68;5.78;;;7.80;99.90;;;;;;5074039;28;20117;-88
2022/11/18 12:19:52;;;;;;;13.70;7.20;;;7.80;99.90;;;;;;5089409;28;20032;-87
2022/11/18 12:22:17;;;;;;;13.05;6.00;;;7.80;99.90;;;;;;5090279;28;20082;-88
2022/11/18 12:24:43;;;;;;;14.75;5.93;;;7.70;99.90;;;;;;5090630;28;20085;-88
2022/11/18 12:27:13;;;;;;;13.23;6.47;;;7.70;99.90;;;;;;5090828;28;20035;-88
2022/11/18 12:29:48;;;;;;;13.65;6.43;;;7.70;99.90;;;;;;5090528;28;20039;-88
2022/11/18 12:32:35;;;;;;;15.35;6.82;;;7.60;99.90;;;;;;5090330;28;20036;-88
2022/11/18 12:35:22;;;;;;;16.90;7.22;;;7.60;99.90;;;;;;5090003;28;20451;-87
2022/11/18 12:37:50;;;;;;;20.13;7.22;;;7.60;99.90;;;;;;5073900;28;20036;-88
2022/11/18 12:40:38;;;;;;;16.02;8.00;;;7.50;99.90;;;;;;5073713;28;20036;-88
2022/11/18 12:46:30;;;;;;;14.00;7.13;;;7.50;99.90;;;;;;4993165;28;20104;-88
2022/11/18 12:48:55;;;;;;;13.88;7.63;;;7.50;99.90;;;;;;4976754;28;20042;-88
2022/11/18 12:51:23;;;;;;;14.68;6.88;;;7.50;99.90;;;;;;5041771;28;20071;-88
2022/11/18 12:53:51;;;;;;;15.68;7.85;;;7.50;99.90;;;;;;5090150;28;20046;-88
2022/11/18 12:56:17;;;;;;;17.60;8.65;;;7.50;99.90;;;;;;5090297;28;20078;-88
2022/11/18 12:58:49;;;;;;;17.30;7.38;;;7.50;99.90;;;;;;5090254;28;20469;-88
2022/11/18 13:01:16;;;;;;;;;;;7.50;99.90;;;;;;5090730;28;20123;-89
2022/11/18 13:03:43;;;;;;;15.27;6.50;;;7.50;99.90;;;;;;5089836;28;20501;-89
2022/11/18 13:06:28;;;;;;;16.63;8.38;;;7.50;99.90;;;;;;5073712;28;20040;-88
2022/11/18 13:09:03;;;;;;;13.98;6.88;;;7.50;99.90;;;;;;5073766;28;20131;-88
2022/11/18 13:11:49;;;;;;;14.80;6.97;;;7.50;99.90;;;;;;5073701;28;20036;-88
2022/11/18 13:20:32;;;;;;;13.45;7.05;;;7.50;99.90;;;;;;5089664;28;20040;-88
2022/11/18 13:26:06;;;;;;;14.23;7.15;;;7.40;99.90;;;;;;5089993;28;20052;-88
2022/11/18 13:28:41;;;;;;;12.57;6.15;;;7.40;99.90;;;;;;5090096;28;20044;-88